sensor_id;sensor_type;location;lat;lon;timestamp;P1;durP1;ratioP1;P2;durP2;ratioP2
46284;SDS011;32018;59.182;18.148;2023-05-02T00:02:22;5.73;;;4.00;;
46284;SDS011;32018;59.182;18.148;2023-05-02T00:04:48;3.70;;;3.00;;
46284;SDS011;32018;59.182;18.148;2023-05-02T00:07:13;4.18;;;2.78;;
46284;SDS011;32018;59.182;18.148;2023-05-02T00:09:38;3.08;;;2.40;;
46284;SDS011;32018;59.182;18.148;2023-05-02T00:12:03;3.38;;;3.08;;
46284;SDS011;32018;59.182;18.148;2023-05-02T00:14:28;4.30;;;3.35;;
46284;SDS011;32018;59.182;18.148;2023-05-02T00:16:54;3.50;;;3.03;;
46284;SDS011;32018;59.182;18.148;2023-05-02T00:19:19;2.88;;;2.53;;
46284;SDS011;32018;59.182;18.148;2023-05-02T00:21:47;5.50;;;3.28;;
46284;SDS011;32018;59.182;18.148;2023-05-02T00:24:13;2.90;;;2.70;;
46284;SDS011;32018;59.182;18.148;2023-05-02T00:26:38;2.40;;;2.20;;
46284;SDS011;32018;59.182;18.148;2023-05-02T00:29:03;3.13;;;2.13;;
46284;SDS011;32018;59.182;18.148;2023-05-02T00:31:29;1.98;;;1.80;;
46284;SDS011;32018;59.182;18.148;2023-05-02T00:33:54;3.17;;;2.00;;
46284;SDS011;32018;59.182;18.148;2023-05-02T00:36:19;1.50;;;1.33;;
46284;SDS011;32018;59.182;18.148;2023-05-02T00:38:45;1.50;;;1.40;;
46284;SDS011;32018;59.182;18.148;2023-05-02T00:41:10;1.30;;;0.80;;
46284;SDS011;32018;59.182;18.148;2023-05-02T00:43:35;2.15;;;1.95;;
46284;SDS011;32018;59.182;18.148;2023-05-02T00:46:01;2.15;;;1.92;;
46284;SDS011;32018;59.182;18.148;2023-05-02T00:48:27;1.20;;;1.10;;
46284;SDS011;32018;59.182;18.148;2023-05-02T00:50:52;1.80;;;1.70;;
46284;SDS011;32018;59.182;18.148;2023-05-02T00:53:17;1.90;;;1.30;;
46284;SDS011;32018;59.182;18.148;2023-05-02T00:55:42;0.73;;;0.73;;
46284;SDS011;32018;59.182;18.148;2023-05-02T00:58:10;1.70;;;1.30;;
46284;SDS011;32018;59.182;18.148;2023-05-02T01:00:42;1.40;;;1.30;;
46284;SDS011;32018;59.182;18.148;2023-05-02T01:03:11;1.50;;;1.40;;
46284;SDS011;32018;59.182;18.148;2023-05-02T01:05:46;1.25;;;1.20;;
46284;SDS011;32018;59.182;18.148;2023-05-02T01:08:16;2.00;;;1.40;;
46284;SDS011;32018;59.182;18.148;2023-05-02T01:15:40;1.10;;;1.00;;
46284;SDS011;32018;59.182;18.148;2023-05-02T01:18:08;1.25;;;1.00;;
46284;SDS011;32018;59.182;18.148;2023-05-02T01:20:35;0.88;;;0.88;;
46284;SDS011;32018;59.182;18.148;2023-05-02T01:23:04;0.75;;;0.57;;
46284;SDS011;32018;59.182;18.148;2023-05-02T01:25:55;1.00;;;1.00;;
46284;SDS011;32018;59.182;18.148;2023-05-02T01:30:48;1.13;;;1.08;;
46284;SDS011;32018;59.182;18.148;2023-05-02T01:33:14;1.30;;;0.70;;
46284;SDS011;32018;59.182;18.148;2023-05-02T01:35:41;0.65;;;0.65;;
46284;SDS011;32018;59.182;18.148;2023-05-02T01:38:07;0.57;;;0.55;;
46284;SDS011;32018;59.182;18.148;2023-05-02T01:40:33;0.90;;;0.90;;
46284;SDS011;32018;59.182;18.148;2023-05-02T01:43:00;0.73;;;0.73;;
46284;SDS011;32018;59.182;18.148;2023-05-02T01:45:28;0.90;;;0.90;;
46284;SDS011;32018;59.182;18.148;2023-05-02T01:47:54;0.60;;;0.60;;
46284;SDS011;32018;59.182;18.148;2023-05-02T01:50:20;1.10;;;1.10;;
46284;SDS011;32018;59.182;18.148;2023-05-02T01:52:47;0.68;;;0.68;;
46284;SDS011;32018;59.182;18.148;2023-05-02T01:55:14;1.27;;;1.20;;
46284;SDS011;32018;59.182;18.148;2023-05-02T01:57:40;0.80;;;0.80;;
46284;SDS011;32018;59.182;18.148;2023-05-02T02:00:06;1.05;;;0.98;;
46284;SDS011;32018;59.182;18.148;2023-05-02T02:02:32;0.57;;;0.55;;
46284;SDS011;32018;59.182;18.148;2023-05-02T02:04:58;0.40;;;0.40;;
46284;SDS011;32018;59.182;18.148;2023-05-02T02:07:24;1.00;;;0.90;;
46284;SDS011;32018;59.182;18.148;2023-05-02T02:09:49;0.70;;;0.70;;
46284;SDS011;32018;59.182;18.148;2023-05-02T02:12:25;0.90;;;0.90;;
46284;SDS011;32018;59.182;18.148;2023-05-02T02:17:36;0.70;;;0.70;;
46284;SDS011;32018;59.182;18.148;2023-05-02T02:20:02;0.50;;;0.50;;
46284;SDS011;32018;59.182;18.148;2023-05-02T02:22:29;0.50;;;0.50;;
46284;SDS011;32018;59.182;18.148;2023-05-02T02:24:56;0.68;;;0.68;;
46284;SDS011;32018;59.182;18.148;2023-05-02T02:27:22;0.70;;;0.70;;
46284;SDS011;32018;59.182;18.148;2023-05-02T02:29:47;0.60;;;0.60;;
46284;SDS011;32018;59.182;18.148;2023-05-02T02:32:13;0.50;;;0.50;;
46284;SDS011;32018;59.182;18.148;2023-05-02T02:34:38;0.70;;;0.70;;
46284;SDS011;32018;59.182;18.148;2023-05-02T02:37:50;0.60;;;0.60;;
46284;SDS011;32018;59.182;18.148;2023-05-02T02:39:52;0.80;;;0.80;;
46284;SDS011;32018;59.182;18.148;2023-05-02T02:47:31;0.75;;;0.75;;
46284;SDS011;32018;59.182;18.148;2023-05-02T02:50:04;0.60;;;0.60;;
46284;SDS011;32018;59.182;18.148;2023-05-02T02:52:54;0.80;;;0.80;;
46284;SDS011;32018;59.182;18.148;2023-05-02T02:58:03;2.05;;;0.60;;
46284;SDS011;32018;59.182;18.148;2023-05-02T03:00:31;0.80;;;0.80;;
46284;SDS011;32018;59.182;18.148;2023-05-02T03:02:56;0.65;;;0.65;;
46284;SDS011;32018;59.182;18.148;2023-05-02T03:05:21;0.70;;;0.70;;
46284;SDS011;32018;59.182;18.148;2023-05-02T03:07:47;0.50;;;0.50;;
46284;SDS011;32018;59.182;18.148;2023-05-02T03:10:13;0.57;;;0.57;;
46284;SDS011;32018;59.182;18.148;2023-05-02T03:12:38;0.40;;;0.40;;
46284;SDS011;32018;59.182;18.148;2023-05-02T03:15:17;0.90;;;0.90;;
46284;SDS011;32018;59.182;18.148;2023-05-02T03:17:44;0.60;;;0.60;;
46284;SDS011;32018;59.182;18.148;2023-05-02T03:20:09;0.60;;;0.60;;
46284;SDS011;32018;59.182;18.148;2023-05-02T03:22:34;0.50;;;0.50;;
46284;SDS011;32018;59.182;18.148;2023-05-02T03:25:00;0.60;;;0.60;;
46284;SDS011;32018;59.182;18.148;2023-05-02T03:27:25;0.60;;;0.60;;
46284;SDS011;32018;59.182;18.148;2023-05-02T03:29:50;0.60;;;0.60;;
46284;SDS011;32018;59.182;18.148;2023-05-02T03:32:15;0.70;;;0.70;;
46284;SDS011;32018;59.182;18.148;2023-05-02T03:34:41;0.50;;;0.50;;
46284;SDS011;32018;59.182;18.148;2023-05-02T03:37:06;0.70;;;0.70;;
46284;SDS011;32018;59.182;18.148;2023-05-02T03:39:31;0.40;;;0.40;;
46284;SDS011;32018;59.182;18.148;2023-05-02T03:41:56;0.40;;;0.40;;
46284;SDS011;32018;59.182;18.148;2023-05-02T03:44:21;0.47;;;0.47;;
46284;SDS011;32018;59.182;18.148;2023-05-02T03:46:46;0.60;;;0.60;;
46284;SDS011;32018;59.182;18.148;2023-05-02T03:49:12;0.40;;;0.40;;
46284;SDS011;32018;59.182;18.148;2023-05-02T03:51:37;0.40;;;0.40;;
46284;SDS011;32018;59.182;18.148;2023-05-02T03:54:03;0.40;;;0.40;;
46284;SDS011;32018;59.182;18.148;2023-05-02T03:56:28;0.60;;;0.60;;
46284;SDS011;32018;59.182;18.148;2023-05-02T03:58:53;0.50;;;0.50;;
46284;SDS011;32018;59.182;18.148;2023-05-02T04:01:18;0.30;;;0.30;;
46284;SDS011;32018;59.182;18.148;2023-05-02T04:03:44;0.50;;;0.50;;
46284;SDS011;32018;59.182;18.148;2023-05-02T04:06:09;0.50;;;0.50;;
46284;SDS011;32018;59.182;18.148;2023-05-02T04:08:34;0.40;;;0.40;;
46284;SDS011;32018;59.182;18.148;2023-05-02T04:11:00;0.30;;;0.30;;
46284;SDS011;32018;59.182;18.148;2023-05-02T04:13:26;0.40;;;0.40;;
46284;SDS011;32018;59.182;18.148;2023-05-02T04:15:53;0.50;;;0.50;;
46284;SDS011;32018;59.182;18.148;2023-05-02T04:18:18;0.50;;;0.50;;
46284;SDS011;32018;59.182;18.148;2023-05-02T04:20:43;0.32;;;0.32;;
46284;SDS011;32018;59.182;18.148;2023-05-02T04:23:09;0.50;;;0.40;;
46284;SDS011;32018;59.182;18.148;2023-05-02T04:25:34;0.30;;;0.30;;
46284;SDS011;32018;59.182;18.148;2023-05-02T04:27:59;0.50;;;0.50;;
46284;SDS011;32018;59.182;18.148;2023-05-02T04:30:25;0.30;;;0.30;;
46284;SDS011;32018;59.182;18.148;2023-05-02T04:32:50;0.50;;;0.50;;
46284;SDS011;32018;59.182;18.148;2023-05-02T04:35:16;0.30;;;0.30;;
46284;SDS011;32018;59.182;18.148;2023-05-02T04:37:41;0.32;;;0.32;;
46284;SDS011;32018;59.182;18.148;2023-05-02T04:40:07;0.40;;;0.40;;
46284;SDS011;32018;59.182;18.148;2023-05-02T04:42:32;0.40;;;0.40;;
46284;SDS011;32018;59.182;18.148;2023-05-02T04:44:58;0.32;;;0.32;;
46284;SDS011;32018;59.182;18.148;2023-05-02T04:47:23;0.40;;;0.40;;
46284;SDS011;32018;59.182;18.148;2023-05-02T04:49:48;0.40;;;0.40;;
46284;SDS011;32018;59.182;18.148;2023-05-02T04:52:13;0.40;;;0.40;;
46284;SDS011;32018;59.182;18.148;2023-05-02T04:54:38;0.50;;;0.50;;
46284;SDS011;32018;59.182;18.148;2023-05-02T04:57:04;0.30;;;0.30;;
46284;SDS011;32018;59.182;18.148;2023-05-02T04:59:31;0.50;;;0.50;;
46284;SDS011;32018;59.182;18.148;2023-05-02T05:01:57;0.50;;;0.50;;
46284;SDS011;32018;59.182;18.148;2023-05-02T05:04:23;0.40;;;0.40;;
46284;SDS011;32018;59.182;18.148;2023-05-02T05:06:48;0.38;;;0.38;;
46284;SDS011;32018;59.182;18.148;2023-05-02T05:09:14;0.50;;;0.50;;
46284;SDS011;32018;59.182;18.148;2023-05-02T05:11:39;0.40;;;0.40;;
46284;SDS011;32018;59.182;18.148;2023-05-02T05:14:05;0.40;;;0.40;;
46284;SDS011;32018;59.182;18.148;2023-05-02T05:16:31;0.40;;;0.40;;
46284;SDS011;32018;59.182;18.148;2023-05-02T05:18:56;0.40;;;0.40;;
46284;SDS011;32018;59.182;18.148;2023-05-02T05:21:21;0.40;;;0.40;;
46284;SDS011;32018;59.182;18.148;2023-05-02T05:23:46;0.40;;;0.40;;
46284;SDS011;32018;59.182;18.148;2023-05-02T05:26:12;0.47;;;0.47;;
46284;SDS011;32018;59.182;18.148;2023-05-02T05:28:39;0.40;;;0.40;;
46284;SDS011;32018;59.182;18.148;2023-05-02T05:31:08;0.30;;;0.30;;
46284;SDS011;32018;59.182;18.148;2023-05-02T05:33:33;0.40;;;0.40;;
46284;SDS011;32018;59.182;18.148;2023-05-02T05:36:02;0.40;;;0.40;;
46284;SDS011;32018;59.182;18.148;2023-05-02T05:38:28;0.60;;;0.60;;
46284;SDS011;32018;59.182;18.148;2023-05-02T05:40:53;0.50;;;0.50;;
46284;SDS011;32018;59.182;18.148;2023-05-02T05:43:19;0.40;;;0.40;;
46284;SDS011;32018;59.182;18.148;2023-05-02T05:45:45;0.50;;;0.50;;
46284;SDS011;32018;59.182;18.148;2023-05-02T05:48:10;0.50;;;0.50;;
46284;SDS011;32018;59.182;18.148;2023-05-02T05:50:35;0.50;;;0.50;;
46284;SDS011;32018;59.182;18.148;2023-05-02T05:53:00;0.60;;;0.60;;
46284;SDS011;32018;59.182;18.148;2023-05-02T05:55:26;0.50;;;0.50;;
46284;SDS011;32018;59.182;18.148;2023-05-02T05:57:51;0.40;;;0.40;;
46284;SDS011;32018;59.182;18.148;2023-05-02T06:00:16;0.40;;;0.40;;
46284;SDS011;32018;59.182;18.148;2023-05-02T06:02:42;0.50;;;0.50;;
46284;SDS011;32018;59.182;18.148;2023-05-02T06:05:07;0.40;;;0.40;;
46284;SDS011;32018;59.182;18.148;2023-05-02T06:07:32;0.43;;;0.43;;
46284;SDS011;32018;59.182;18.148;2023-05-02T06:09:57;0.43;;;0.43;;
46284;SDS011;32018;59.182;18.148;2023-05-02T06:12:22;0.43;;;0.43;;
46284;SDS011;32018;59.182;18.148;2023-05-02T06:14:48;0.47;;;0.47;;
46284;SDS011;32018;59.182;18.148;2023-05-02T06:17:13;0.60;;;0.60;;
46284;SDS011;32018;59.182;18.148;2023-05-02T06:19:38;0.50;;;0.50;;
46284;SDS011;32018;59.182;18.148;2023-05-02T06:22:03;0.40;;;0.40;;
46284;SDS011;32018;59.182;18.148;2023-05-02T06:24:29;0.97;;;0.60;;
46284;SDS011;32018;59.182;18.148;2023-05-02T06:26:55;0.60;;;0.60;;
46284;SDS011;32018;59.182;18.148;2023-05-02T06:29:20;0.40;;;0.40;;
46284;SDS011;32018;59.182;18.148;2023-05-02T06:31:45;0.47;;;0.47;;
46284;SDS011;32018;59.182;18.148;2023-05-02T06:34:10;0.60;;;0.60;;
46284;SDS011;32018;59.182;18.148;2023-05-02T06:36:36;0.60;;;0.60;;
46284;SDS011;32018;59.182;18.148;2023-05-02T06:39:01;0.40;;;0.40;;
46284;SDS011;32018;59.182;18.148;2023-05-02T06:41:26;0.43;;;0.43;;
46284;SDS011;32018;59.182;18.148;2023-05-02T06:43:51;0.70;;;0.45;;
46284;SDS011;32018;59.182;18.148;2023-05-02T06:46:16;0.50;;;0.50;;
46284;SDS011;32018;59.182;18.148;2023-05-02T06:48:42;0.60;;;0.60;;
46284;SDS011;32018;59.182;18.148;2023-05-02T06:51:07;0.60;;;0.60;;
46284;SDS011;32018;59.182;18.148;2023-05-02T06:53:33;0.60;;;0.60;;
46284;SDS011;32018;59.182;18.148;2023-05-02T06:55:58;0.55;;;0.55;;
46284;SDS011;32018;59.182;18.148;2023-05-02T06:58:23;0.60;;;0.60;;
46284;SDS011;32018;59.182;18.148;2023-05-02T07:00:49;0.47;;;0.43;;
46284;SDS011;32018;59.182;18.148;2023-05-02T07:03:14;0.60;;;0.60;;
46284;SDS011;32018;59.182;18.148;2023-05-02T07:05:39;0.60;;;0.60;;
46284;SDS011;32018;59.182;18.148;2023-05-02T07:08:05;0.60;;;0.60;;
46284;SDS011;32018;59.182;18.148;2023-05-02T07:10:30;0.50;;;0.50;;
46284;SDS011;32018;59.182;18.148;2023-05-02T07:12:56;0.52;;;0.50;;
46284;SDS011;32018;59.182;18.148;2023-05-02T07:15:21;0.80;;;0.57;;
46284;SDS011;32018;59.182;18.148;2023-05-02T07:17:46;0.50;;;0.50;;
46284;SDS011;32018;59.182;18.148;2023-05-02T07:20:11;0.50;;;0.50;;
46284;SDS011;32018;59.182;18.148;2023-05-02T07:22:37;0.50;;;0.50;;
46284;SDS011;32018;59.182;18.148;2023-05-02T07:25:02;1.08;;;0.50;;
46284;SDS011;32018;59.182;18.148;2023-05-02T07:27:28;0.50;;;0.50;;
46284;SDS011;32018;59.182;18.148;2023-05-02T07:29:53;0.70;;;0.70;;
46284;SDS011;32018;59.182;18.148;2023-05-02T07:32:19;0.68;;;0.68;;
46284;SDS011;32018;59.182;18.148;2023-05-02T07:34:45;0.40;;;0.40;;
46284;SDS011;32018;59.182;18.148;2023-05-02T07:37:10;0.60;;;0.60;;
46284;SDS011;32018;59.182;18.148;2023-05-02T07:39:36;0.60;;;0.50;;
46284;SDS011;32018;59.182;18.148;2023-05-02T07:42:01;0.55;;;0.55;;
46284;SDS011;32018;59.182;18.148;2023-05-02T07:44:27;0.60;;;0.60;;
46284;SDS011;32018;59.182;18.148;2023-05-02T07:46:52;0.57;;;0.57;;
46284;SDS011;32018;59.182;18.148;2023-05-02T07:49:18;1.00;;;0.55;;
46284;SDS011;32018;59.182;18.148;2023-05-02T07:51:44;1.25;;;0.60;;
46284;SDS011;32018;59.182;18.148;2023-05-02T07:54:19;0.60;;;0.60;;
46284;SDS011;32018;59.182;18.148;2023-05-02T07:56:45;0.60;;;0.60;;
46284;SDS011;32018;59.182;18.148;2023-05-02T07:59:11;0.50;;;0.50;;
46284;SDS011;32018;59.182;18.148;2023-05-02T08:01:36;0.50;;;0.50;;
46284;SDS011;32018;59.182;18.148;2023-05-02T08:04:01;0.65;;;0.60;;
46284;SDS011;32018;59.182;18.148;2023-05-02T08:06:28;0.60;;;0.60;;
46284;SDS011;32018;59.182;18.148;2023-05-02T08:08:53;0.60;;;0.60;;
46284;SDS011;32018;59.182;18.148;2023-05-02T08:11:18;0.65;;;0.65;;
46284;SDS011;32018;59.182;18.148;2023-05-02T08:13:45;0.65;;;0.50;;
46284;SDS011;32018;59.182;18.148;2023-05-02T08:16:11;0.82;;;0.60;;
46284;SDS011;32018;59.182;18.148;2023-05-02T08:18:36;0.60;;;0.60;;
46284;SDS011;32018;59.182;18.148;2023-05-02T08:21:01;1.13;;;0.70;;
46284;SDS011;32018;59.182;18.148;2023-05-02T08:23:27;0.50;;;0.50;;
46284;SDS011;32018;59.182;18.148;2023-05-02T08:25:52;0.40;;;0.40;;
46284;SDS011;32018;59.182;18.148;2023-05-02T08:28:18;0.52;;;0.52;;
46284;SDS011;32018;59.182;18.148;2023-05-02T08:30:43;0.50;;;0.50;;
46284;SDS011;32018;59.182;18.148;2023-05-02T08:33:09;0.60;;;0.60;;
46284;SDS011;32018;59.182;18.148;2023-05-02T08:35:34;1.15;;;0.60;;
46284;SDS011;32018;59.182;18.148;2023-05-02T08:38:00;0.50;;;0.50;;
46284;SDS011;32018;59.182;18.148;2023-05-02T08:40:25;0.63;;;0.60;;
46284;SDS011;32018;59.182;18.148;2023-05-02T08:42:51;0.60;;;0.60;;
46284;SDS011;32018;59.182;18.148;2023-05-02T08:45:16;0.50;;;0.50;;
46284;SDS011;32018;59.182;18.148;2023-05-02T08:47:42;2.15;;;0.60;;
46284;SDS011;32018;59.182;18.148;2023-05-02T08:50:08;0.60;;;0.60;;
46284;SDS011;32018;59.182;18.148;2023-05-02T08:52:35;0.60;;;0.60;;
46284;SDS011;32018;59.182;18.148;2023-05-02T08:55:00;0.50;;;0.50;;
46284;SDS011;32018;59.182;18.148;2023-05-02T08:57:29;1.05;;;0.60;;
46284;SDS011;32018;59.182;18.148;2023-05-02T08:59:57;0.50;;;0.50;;
46284;SDS011;32018;59.182;18.148;2023-05-02T09:04:48;0.63;;;0.63;;
46284;SDS011;32018;59.182;18.148;2023-05-02T09:07:14;0.70;;;0.70;;
46284;SDS011;32018;59.182;18.148;2023-05-02T09:09:40;0.65;;;0.60;;
46284;SDS011;32018;59.182;18.148;2023-05-02T09:12:05;0.85;;;0.80;;
46284;SDS011;32018;59.182;18.148;2023-05-02T09:14:30;0.57;;;0.57;;
46284;SDS011;32018;59.182;18.148;2023-05-02T09:16:59;0.50;;;0.50;;
46284;SDS011;32018;59.182;18.148;2023-05-02T09:19:25;0.50;;;0.50;;
46284;SDS011;32018;59.182;18.148;2023-05-02T09:21:50;0.45;;;0.45;;
46284;SDS011;32018;59.182;18.148;2023-05-02T09:24:20;1.05;;;0.70;;
46284;SDS011;32018;59.182;18.148;2023-05-02T09:26:59;0.50;;;0.50;;
46284;SDS011;32018;59.182;18.148;2023-05-02T09:29:25;0.73;;;0.70;;
46284;SDS011;32018;59.182;18.148;2023-05-02T09:31:51;0.65;;;0.55;;
46284;SDS011;32018;59.182;18.148;2023-05-02T09:34:17;0.60;;;0.60;;
46284;SDS011;32018;59.182;18.148;2023-05-02T09:36:47;0.50;;;0.50;;
46284;SDS011;32018;59.182;18.148;2023-05-02T09:39:16;0.65;;;0.65;;
46284;SDS011;32018;59.182;18.148;2023-05-02T09:41:42;0.63;;;0.55;;
46284;SDS011;32018;59.182;18.148;2023-05-02T09:44:10;0.50;;;0.50;;
46284;SDS011;32018;59.182;18.148;2023-05-02T09:46:43;0.60;;;0.60;;
46284;SDS011;32018;59.182;18.148;2023-05-02T09:49:09;0.77;;;0.77;;
46284;SDS011;32018;59.182;18.148;2023-05-02T09:51:34;1.00;;;0.77;;
46284;SDS011;32018;59.182;18.148;2023-05-02T09:53:59;0.52;;;0.52;;
46284;SDS011;32018;59.182;18.148;2023-05-02T09:56:25;0.60;;;0.60;;
46284;SDS011;32018;59.182;18.148;2023-05-02T09:58:50;0.60;;;0.60;;
46284;SDS011;32018;59.182;18.148;2023-05-02T10:01:16;0.63;;;0.63;;
46284;SDS011;32018;59.182;18.148;2023-05-02T10:03:41;0.52;;;0.52;;
46284;SDS011;32018;59.182;18.148;2023-05-02T10:06:09;0.55;;;0.55;;
46284;SDS011;32018;59.182;18.148;2023-05-02T10:08:35;0.80;;;0.80;;
46284;SDS011;32018;59.182;18.148;2023-05-02T10:11:01;1.55;;;0.82;;
46284;SDS011;32018;59.182;18.148;2023-05-02T10:13:29;0.52;;;0.52;;
46284;SDS011;32018;59.182;18.148;2023-05-02T10:16:03;1.23;;;0.65;;
46284;SDS011;32018;59.182;18.148;2023-05-02T10:18:50;3.58;;;0.80;;
46284;SDS011;32018;59.182;18.148;2023-05-02T10:21:18;0.70;;;0.70;;
46284;SDS011;32018;59.182;18.148;2023-05-02T10:23:44;0.77;;;0.70;;
46284;SDS011;32018;59.182;18.148;2023-05-02T10:26:11;0.70;;;0.70;;
46284;SDS011;32018;59.182;18.148;2023-05-02T10:28:37;0.85;;;0.80;;
46284;SDS011;32018;59.182;18.148;2023-05-02T10:31:04;0.68;;;0.68;;
46284;SDS011;32018;59.182;18.148;2023-05-02T10:33:29;0.70;;;0.70;;
46284;SDS011;32018;59.182;18.148;2023-05-02T10:35:55;0.70;;;0.70;;
46284;SDS011;32018;59.182;18.148;2023-05-02T10:38:21;0.95;;;0.80;;
46284;SDS011;32018;59.182;18.148;2023-05-02T10:40:48;0.80;;;0.80;;
46284;SDS011;32018;59.182;18.148;2023-05-02T10:43:19;1.83;;;0.85;;
46284;SDS011;32018;59.182;18.148;2023-05-02T10:45:45;0.95;;;0.80;;
46284;SDS011;32018;59.182;18.148;2023-05-02T10:50:46;0.73;;;0.70;;
46284;SDS011;32018;59.182;18.148;2023-05-02T10:53:21;0.50;;;0.50;;
46284;SDS011;32018;59.182;18.148;2023-05-02T10:56:06;0.68;;;0.60;;
46284;SDS011;32018;59.182;18.148;2023-05-02T10:58:31;0.63;;;0.63;;
46284;SDS011;32018;59.182;18.148;2023-05-02T11:01:23;1.25;;;0.60;;
46284;SDS011;32018;59.182;18.148;2023-05-02T11:03:58;1.00;;;0.70;;
46284;SDS011;32018;59.182;18.148;2023-05-02T11:06:27;0.90;;;0.75;;
46284;SDS011;32018;59.182;18.148;2023-05-02T11:08:54;1.08;;;0.80;;
46284;SDS011;32018;59.182;18.148;2023-05-02T11:11:44;0.85;;;0.60;;
46284;SDS011;32018;59.182;18.148;2023-05-02T11:14:11;3.45;;;0.80;;
46284;SDS011;32018;59.182;18.148;2023-05-02T11:19:20;0.90;;;0.90;;
46284;SDS011;32018;59.182;18.148;2023-05-02T11:21:46;0.60;;;0.60;;
46284;SDS011;32018;59.182;18.148;2023-05-02T11:27:19;1.10;;;0.70;;
46284;SDS011;32018;59.182;18.148;2023-05-02T11:29:56;0.65;;;0.60;;
46284;SDS011;32018;59.182;18.148;2023-05-02T11:32:22;0.98;;;0.70;;
46284;SDS011;32018;59.182;18.148;2023-05-02T11:34:47;0.60;;;0.60;;
46284;SDS011;32018;59.182;18.148;2023-05-02T11:37:16;1.10;;;0.70;;
46284;SDS011;32018;59.182;18.148;2023-05-02T11:39:42;0.80;;;0.80;;
46284;SDS011;32018;59.182;18.148;2023-05-02T11:42:07;0.90;;;0.80;;
46284;SDS011;32018;59.182;18.148;2023-05-02T11:44:32;1.27;;;0.73;;
46284;SDS011;32018;59.182;18.148;2023-05-02T11:46:58;0.60;;;0.60;;
46284;SDS011;32018;59.182;18.148;2023-05-02T11:49:24;0.60;;;0.60;;
46284;SDS011;32018;59.182;18.148;2023-05-02T11:51:50;0.55;;;0.55;;
46284;SDS011;32018;59.182;18.148;2023-05-02T11:54:19;0.60;;;0.60;;
46284;SDS011;32018;59.182;18.148;2023-05-02T11:56:45;0.68;;;0.68;;
46284;SDS011;32018;59.182;18.148;2023-05-02T11:59:11;0.70;;;0.70;;
46284;SDS011;32018;59.182;18.148;2023-05-02T12:01:36;1.13;;;0.82;;
46284;SDS011;32018;59.182;18.148;2023-05-02T12:04:11;0.60;;;0.60;;
46284;SDS011;32018;59.182;18.148;2023-05-02T12:06:36;0.73;;;0.73;;
46284;SDS011;32018;59.182;18.148;2023-05-02T12:09:08;0.57;;;0.57;;
46284;SDS011;32018;59.182;18.148;2023-05-02T12:11:33;0.40;;;0.40;;
46284;SDS011;32018;59.182;18.148;2023-05-02T12:13:59;0.60;;;0.60;;
46284;SDS011;32018;59.182;18.148;2023-05-02T12:16:24;0.60;;;0.60;;
46284;SDS011;32018;59.182;18.148;2023-05-02T12:18:50;0.90;;;0.80;;
46284;SDS011;32018;59.182;18.148;2023-05-02T12:21:15;0.45;;;0.45;;
46284;SDS011;32018;59.182;18.148;2023-05-02T12:23:41;0.80;;;0.60;;
46284;SDS011;32018;59.182;18.148;2023-05-02T12:26:16;0.70;;;0.50;;
46284;SDS011;32018;59.182;18.148;2023-05-02T12:28:48;0.85;;;0.40;;
46284;SDS011;32018;59.182;18.148;2023-05-02T12:31:14;0.73;;;0.50;;
46284;SDS011;32018;59.182;18.148;2023-05-02T12:33:43;0.60;;;0.60;;
46284;SDS011;32018;59.182;18.148;2023-05-02T12:36:08;1.70;;;0.60;;
46284;SDS011;32018;59.182;18.148;2023-05-02T12:38:34;1.95;;;0.68;;
46284;SDS011;32018;59.182;18.148;2023-05-02T12:41:00;1.25;;;0.70;;
46284;SDS011;32018;59.182;18.148;2023-05-02T12:43:25;1.27;;;0.50;;
46284;SDS011;32018;59.182;18.148;2023-05-02T12:45:57;0.50;;;0.50;;
46284;SDS011;32018;59.182;18.148;2023-05-02T12:48:32;0.95;;;0.60;;
46284;SDS011;32018;59.182;18.148;2023-05-02T12:50:58;1.13;;;0.77;;
46284;SDS011;32018;59.182;18.148;2023-05-02T12:56:04;0.95;;;0.65;;
46284;SDS011;32018;59.182;18.148;2023-05-02T12:58:37;1.40;;;0.65;;
46284;SDS011;32018;59.182;18.148;2023-05-02T13:01:03;0.50;;;0.50;;
46284;SDS011;32018;59.182;18.148;2023-05-02T13:03:29;0.40;;;0.40;;
46284;SDS011;32018;59.182;18.148;2023-05-02T13:05:54;0.75;;;0.52;;
46284;SDS011;32018;59.182;18.148;2023-05-02T13:08:20;0.40;;;0.40;;
46284;SDS011;32018;59.182;18.148;2023-05-02T13:10:45;0.40;;;0.40;;
46284;SDS011;32018;59.182;18.148;2023-05-02T13:13:10;1.17;;;0.60;;
46284;SDS011;32018;59.182;18.148;2023-05-02T13:15:36;0.40;;;0.40;;
46284;SDS011;32018;59.182;18.148;2023-05-02T13:18:01;0.50;;;0.50;;
46284;SDS011;32018;59.182;18.148;2023-05-02T13:20:26;0.90;;;0.50;;
46284;SDS011;32018;59.182;18.148;2023-05-02T13:22:51;1.00;;;0.50;;
46284;SDS011;32018;59.182;18.148;2023-05-02T13:25:17;0.40;;;0.40;;
46284;SDS011;32018;59.182;18.148;2023-05-02T13:27:42;2.17;;;0.50;;
46284;SDS011;32018;59.182;18.148;2023-05-02T13:30:07;0.90;;;0.40;;
46284;SDS011;32018;59.182;18.148;2023-05-02T13:32:33;0.75;;;0.47;;
46284;SDS011;32018;59.182;18.148;2023-05-02T13:34:58;1.10;;;0.55;;
46284;SDS011;32018;59.182;18.148;2023-05-02T13:37:24;0.60;;;0.60;;
46284;SDS011;32018;59.182;18.148;2023-05-02T13:39:50;0.95;;;0.40;;
46284;SDS011;32018;59.182;18.148;2023-05-02T13:42:15;1.25;;;0.50;;
46284;SDS011;32018;59.182;18.148;2023-05-02T13:44:40;0.40;;;0.40;;
46284;SDS011;32018;59.182;18.148;2023-05-02T13:47:06;0.60;;;0.60;;
46284;SDS011;32018;59.182;18.148;2023-05-02T13:49:31;0.50;;;0.50;;
46284;SDS011;32018;59.182;18.148;2023-05-02T13:51:56;0.40;;;0.40;;
46284;SDS011;32018;59.182;18.148;2023-05-02T13:54:21;1.05;;;0.38;;
46284;SDS011;32018;59.182;18.148;2023-05-02T13:56:46;0.70;;;0.50;;
46284;SDS011;32018;59.182;18.148;2023-05-02T13:59:12;0.37;;;0.37;;
46284;SDS011;32018;59.182;18.148;2023-05-02T14:01:37;1.95;;;0.30;;
46284;SDS011;32018;59.182;18.148;2023-05-02T14:04:04;0.55;;;0.50;;
46284;SDS011;32018;59.182;18.148;2023-05-02T14:06:32;0.40;;;0.40;;
46284;SDS011;32018;59.182;18.148;2023-05-02T14:08:58;0.40;;;0.40;;
46284;SDS011;32018;59.182;18.148;2023-05-02T14:11:23;0.43;;;0.40;;
46284;SDS011;32018;59.182;18.148;2023-05-02T14:13:48;1.13;;;0.30;;
46284;SDS011;32018;59.182;18.148;2023-05-02T14:16:13;0.40;;;0.40;;
46284;SDS011;32018;59.182;18.148;2023-05-02T14:18:39;1.38;;;0.40;;
46284;SDS011;32018;59.182;18.148;2023-05-02T14:21:04;0.50;;;0.40;;
46284;SDS011;32018;59.182;18.148;2023-05-02T14:23:29;0.32;;;0.30;;
46284;SDS011;32018;59.182;18.148;2023-05-02T14:25:55;0.30;;;0.30;;
46284;SDS011;32018;59.182;18.148;2023-05-02T14:28:20;0.30;;;0.30;;
46284;SDS011;32018;59.182;18.148;2023-05-02T14:30:48;0.75;;;0.40;;
46284;SDS011;32018;59.182;18.148;2023-05-02T14:33:14;0.70;;;0.40;;
46284;SDS011;32018;59.182;18.148;2023-05-02T14:35:39;0.40;;;0.40;;
46284;SDS011;32018;59.182;18.148;2023-05-02T14:38:04;1.30;;;0.43;;
46284;SDS011;32018;59.182;18.148;2023-05-02T14:40:30;1.40;;;0.52;;
46284;SDS011;32018;59.182;18.148;2023-05-02T14:42:55;0.40;;;0.40;;
46284;SDS011;32018;59.182;18.148;2023-05-02T14:45:20;0.52;;;0.40;;
46284;SDS011;32018;59.182;18.148;2023-05-02T14:47:46;0.40;;;0.40;;
46284;SDS011;32018;59.182;18.148;2023-05-02T14:50:12;0.30;;;0.30;;
46284;SDS011;32018;59.182;18.148;2023-05-02T14:52:37;0.30;;;0.30;;
46284;SDS011;32018;59.182;18.148;2023-05-02T14:55:02;0.85;;;0.45;;
46284;SDS011;32018;59.182;18.148;2023-05-02T14:57:28;0.38;;;0.38;;
46284;SDS011;32018;59.182;18.148;2023-05-02T14:59:53;0.32;;;0.30;;
46284;SDS011;32018;59.182;18.148;2023-05-02T15:02:18;0.70;;;0.40;;